Time;durP1;ratioP1;P1;durP2;ratioP2;P2;SDS_P1;SDS_P2;PMS_P1;PMS_P2;Temp;Humidity;BMP_temperature;BMP_pressure;BME280_temperature;BME280_humidity;BME280_pressure;Samples;Min_cycle;Max_cycle;Signal;HPM_P1;HPM_P2
2022/03/16 00:00:14;;;;;;;14.83;13.60;;;;;;;3.35;54.71;93742.19;5099965;28;20231;-76
2022/03/16 00:02:39;;;;;;;14.20;12.90;;;;;;;3.47;53.90;93750.88;5082245;28;20194;-76
2022/03/16 00:05:05;;;;;;;12.80;11.80;;;;;;;3.61;54.32;93742.81;5099606;28;20229;-77
2022/03/16 00:07:31;;;;;;;14.33;13.10;;;;;;;3.81;54.42;93748.66;5083011;28;20231;-76
2022/03/16 00:09:56;;;;;;;14.47;13.07;;;;;;;3.60;55.12;93733.50;5099340;28;20215;-76
2022/03/16 00:12:22;;;;;;;14.93;13.63;;;;;;;3.23;55.25;93767.84;5097047;28;20233;-75
2022/03/16 00:14:47;;;;;;;14.60;13.30;;;;;;;3.24;55.42;93746.19;5102014;28;20255;-77
2022/03/16 00:17:13;;;;;;;16.70;15.23;;;;;;;3.42;56.97;93750.69;5080868;28;20207;-76
2022/03/16 00:19:40;;;;;;;14.03;12.73;;;;;;;3.38;56.27;93772.75;5099964;28;20228;-76
2022/03/16 00:22:06;;;;;;;13.77;12.47;;;;;;;3.31;55.99;93767.63;5085020;28;20185;-78
2022/03/16 00:24:32;;;;;;;13.53;12.53;;;;;;;3.42;55.37;93763.59;5100301;28;20263;-77
2022/03/16 00:26:57;;;;;;;14.03;12.53;;;;;;;3.36;54.44;93754.91;5102202;28;20199;-77
2022/03/16 00:29:23;;;;;;;16.43;14.80;;;;;;;3.50;54.72;93756.41;5099613;28;20236;-77
2022/03/16 00:31:49;;;;;;;17.80;15.23;;;;;;;3.75;54.44;93730.63;5100611;28;20223;-76
2022/03/16 00:34:15;;;;;;;16.63;15.13;;;;;;;3.51;53.80;93731.38;5097356;28;20288;-76
2022/03/16 00:36:40;;;;;;;18.07;16.17;;;;;;;3.76;52.84;93720.09;5099853;28;20210;-77
2022/03/16 00:39:06;;;;;;;15.00;13.67;;;;;;;3.78;53.56;93723.25;5083254;28;20303;-77
2022/03/16 00:41:33;;;;;;;18.10;15.00;;;;;;;3.84;54.94;93719.03;5099948;28;20212;-77
2022/03/16 00:43:59;;;;;;;16.13;14.73;;;;;;;3.89;54.98;93683.81;5100600;28;20220;-77
2022/03/16 00:46:24;;;;;;;15.73;14.23;;;;;;;4.00;55.81;93680.53;5101193;28;20873;-77
2022/03/16 00:48:50;;;;;;;16.83;13.80;;;;;;;3.41;56.64;93705.25;5083837;28;20240;-77
2022/03/16 00:51:15;;;;;;;14.80;13.43;;;;;;;3.44;57.05;93687.53;5098873;28;20280;-77
2022/03/16 00:53:41;;;;;;;15.40;13.90;;;;;;;3.41;55.79;93685.38;5097923;28;20243;-77
2022/03/16 00:56:08;;;;;;;15.70;14.30;;;;;;;3.44;55.21;93684.16;5100320;28;20215;-76
2022/03/16 00:58:35;;;;;;;15.90;14.27;;;;;;;3.17;57.50;93678.38;5101313;28;20291;-77
2022/03/16 01:01:01;;;;;;;14.03;12.97;;;;;;;3.28;56.08;93688.03;5102046;28;20190;-77
2022/03/16 01:03:28;;;;;;;15.43;14.03;;;;;;;3.18;57.15;93688.50;5100372;28;20247;-77
2022/03/16 01:05:53;;;;;;;13.20;12.10;;;;;;;3.28;56.52;93681.06;5098838;28;20207;-77
2022/03/16 01:08:19;;;;;;;15.53;14.17;;;;;;;3.19;57.07;93661.69;5098060;28;20213;-77
2022/03/16 01:10:44;;;;;;;15.20;14.00;;;;;;;3.50;55.55;93678.97;5098929;28;20264;-77
2022/03/16 01:13:10;;;;;;;15.60;13.83;;;;;;;3.60;56.34;93673.31;5098047;28;20180;-76
2022/03/16 01:15:36;;;;;;;14.17;12.93;;;;;;;3.48;56.89;93657.72;5096289;28;20280;-77
2022/03/16 01:18:01;;;;;;;14.57;13.33;;;;;;;3.51;56.76;93644.41;5101801;28;20200;-77
2022/03/16 01:20:27;;;;;;;13.60;12.50;;;;;;;3.72;55.91;93646.59;5096211;28;20204;-76
2022/03/16 01:22:53;;;;;;;14.17;13.00;;;;;;;3.68;56.70;93634.34;5097770;28;20192;-77
2022/03/16 01:25:18;;;;;;;17.57;14.83;;;;;;;3.70;55.94;93627.16;5099600;28;20280;-77
2022/03/16 01:27:43;;;;;;;18.33;14.23;;;;;;;3.31;58.65;93620.53;5080451;28;20205;-76
2022/03/16 01:30:09;;;;;;;15.67;14.17;;;;;;;3.31;58.18;93607.63;5100100;28;20247;-77
2022/03/16 01:32:35;;;;;;;15.57;14.07;;;;;;;3.56;57.54;93616.19;5080962;28;20172;-76
2022/03/16 01:35:01;;;;;;;15.87;14.47;;;;;;;3.20;57.93;93611.69;5082180;28;20246;-77
2022/03/16 01:37:27;;;;;;;16.73;15.27;;;;;;;3.11;55.33;93625.81;5098968;28;20208;-76
2022/03/16 01:39:52;;;;;;;13.53;12.23;;;;;;;2.88;51.86;93557.75;5095943;28;20236;-76
2022/03/16 01:42:18;;;;;;;13.00;12.10;;;;;;;3.41;52.25;93613.09;5099217;28;20188;-77
2022/03/16 01:44:48;;;;;;;21.33;16.77;;;;;;;3.64;52.37;93628.81;5099023;28;20236;-77
2022/03/16 01:47:15;;;;;;;22.93;17.83;;;;;;;3.76;53.45;93631.50;5100140;28;20195;-77
2022/03/16 01:49:41;;;;;;;31.40;22.97;;;;;;;3.94;55.39;93632.31;5097546;28;20239;-77
2022/03/16 01:52:08;;;;;;;20.60;17.93;;;;;;;3.68;52.92;93619.63;5098372;28;20195;-77
2022/03/16 01:54:34;;;;;;;19.80;17.83;;;;;;;3.85;52.23;93618.09;5077409;28;20216;-77
2022/03/16 01:57:00;;;;;;;20.13;18.13;;;;;;;3.82;54.03;93599.66;5099930;28;20197;-76
2022/03/16 01:59:25;;;;;;;19.30;16.27;;;;;;;3.80;55.41;93589.53;5080151;28;20236;-77
2022/03/16 02:01:51;;;;;;;17.93;15.87;;;;;;;3.85;56.35;93601.78;5100094;28;20188;-77
2022/03/16 02:04:16;;;;;;;15.40;13.80;;;;;;;3.61;56.43;93608.56;5082454;28;20220;-77
2022/03/16 02:06:42;;;;;;;16.23;14.70;;;;;;;3.76;54.70;93585.81;5096899;28;20225;-77
2022/03/16 02:09:07;;;;;;;15.77;14.27;;;;;;;3.89;55.92;93590.81;5097893;28;20233;-77
2022/03/16 02:11:33;;;;;;;16.57;15.00;;;;;;;3.94;55.80;93585.81;5098688;28;20184;-77
2022/03/16 02:13:58;;;;;;;16.00;13.70;;;;;;;3.82;56.53;93584.94;5098258;28;20236;-77
2022/03/16 02:16:24;;;;;;;16.07;14.27;;;;;;;3.77;56.42;93582.22;5100148;28;20211;-77
2022/03/16 02:18:49;;;;;;;15.53;14.07;;;;;;;3.56;58.25;93590.34;5099310;28;20224;-76
2022/03/16 02:21:16;;;;;;;15.70;14.20;;;;;;;3.80;57.44;93592.09;5096587;28;21275;-77
2022/03/16 02:23:42;;;;;;;15.27;13.77;;;;;;;3.98;56.07;93594.72;5082758;28;20234;-77
2022/03/16 02:26:12;;;;;;;15.20;13.40;;;;;;;3.83;57.14;93581.34;5080079;28;20188;-77
2022/03/16 02:28:38;;;;;;;15.37;14.07;;;;;;;3.87;56.62;93572.19;5096641;28;20252;-78
2022/03/16 02:31:04;;;;;;;17.47;15.57;;;;;;;3.35;59.89;93559.75;5095413;28;20199;-77
2022/03/16 02:33:30;;;;;;;15.53;14.07;;;;;;;3.73;58.27;93591.41;5100352;28;20229;-77
2022/03/16 02:35:55;;;;;;;15.43;13.80;;;;;;;3.81;57.91;93565.31;5098113;28;20191;-77
2022/03/16 02:38:21;;;;;;;14.70;13.50;;;;;;;3.39;59.69;93573.81;5081584;28;20233;-77
2022/03/16 02:40:47;;;;;;;15.03;13.63;;;;;;;3.46;58.69;93561.63;5099027;28;20177;-77
2022/03/16 02:43:12;;;;;;;15.70;14.40;;;;;;;3.78;58.35;93562.34;5096836;28;20200;-77
2022/03/16 02:45:38;;;;;;;16.30;14.87;;;;;;;3.74;58.41;93566.34;5096582;28;20189;-77
2022/03/16 02:48:03;;;;;;;16.33;14.73;;;;;;;3.87;57.79;93556.69;5079243;28;20199;-77
2022/03/16 02:50:29;;;;;;;15.10;13.70;;;;;;;3.76;58.00;93570.31;5079466;28;20273;-77
2022/03/16 02:52:55;;;;;;;15.63;14.03;;;;;;;3.85;56.71;93568.22;5083773;28;20176;-77
2022/03/16 02:55:20;;;;;;;15.57;14.27;;;;;;;4.17;56.09;93567.88;5097174;28;20248;-77
2022/03/16 02:57:45;;;;;;;14.77;13.37;;;;;;;4.02;57.46;93572.63;5092891;28;20685;-77
2022/03/16 03:00:12;;;;;;;15.70;14.27;;;;;;;3.79;58.17;93548.44;5095517;28;20248;-77
2022/03/16 03:02:37;;;;;;;14.63;13.23;;;;;;;3.80;58.21;93545.63;5099595;28;20196;-76
2022/03/16 03:05:04;;;;;;;15.00;13.77;;;;;;;3.82;58.21;93555.75;5096982;28;20243;-77
2022/03/16 03:07:29;;;;;;;15.37;12.70;;;;;;;4.05;57.42;93543.78;5079642;28;20215;-77
2022/03/16 03:09:54;;;;;;;14.40;13.07;;;;;;;4.08;57.54;93533.00;5096415;28;20243;-77
2022/03/16 03:12:20;;;;;;;15.63;14.27;;;;;;;3.85;58.10;93517.38;5080393;28;20192;-77
2022/03/16 03:14:45;;;;;;;14.67;13.37;;;;;;;3.72;58.29;93527.81;5096030;28;20220;-77
2022/03/16 03:17:11;;;;;;;15.03;13.63;;;;;;;3.77;58.42;93509.91;5099710;28;20207;-77
2022/03/16 03:19:36;;;;;;;15.67;14.23;;;;;;;3.89;58.06;93525.47;5101670;28;20287;-77
2022/03/16 03:22:04;;;;;;;16.33;14.77;;;;;;;3.79;58.93;93523.41;5095300;28;20193;-77
2022/03/16 03:24:30;;;;;;;15.53;14.13;;;;;;;3.87;58.45;93530.06;5097957;28;20231;-77
2022/03/16 03:26:55;;;;;;;15.73;14.23;;;;;;;3.96;58.55;93532.16;5096216;28;20193;-77
2022/03/16 03:29:21;;;;;;;15.70;14.30;;;;;;;3.80;58.93;93524.97;5101269;28;20326;-77
2022/03/16 03:31:46;;;;;;;16.70;15.07;;;;;;;3.81;58.81;93518.81;5098313;28;20196;-76
2022/03/16 03:34:12;;;;;;;16.63;15.00;;;;;;;3.93;57.85;93529.19;5096524;28;20244;-77
2022/03/16 03:36:37;;;;;;;14.87;13.30;;;;;;;3.89;58.22;93541.75;5097562;28;20184;-77
2022/03/16 03:39:03;;;;;;;14.40;13.20;;;;;;;4.12;58.32;93543.69;5080801;28;21257;-77
2022/03/16 03:41:28;;;;;;;19.03;14.40;;;;;;;4.19;58.05;93537.44;5094336;28;20184;-76
2022/03/16 03:43:54;;;;;;;14.40;13.27;;;;;;;4.00;58.91;93533.28;5096595;28;20232;-77
2022/03/16 03:46:20;;;;;;;14.57;13.47;;;;;;;3.79;58.39;93497.56;5098316;28;20183;-77
2022/03/16 03:48:45;;;;;;;13.90;12.63;;;;;;;3.38;60.03;93520.63;5094304;28;21210;-77
2022/03/16 03:51:11;;;;;;;15.03;13.80;;;;;;;3.78;59.12;93514.09;5081336;28;20658;-77
2022/03/16 03:53:36;;;;;;;14.50;13.10;;;;;;;3.84;59.38;93496.94;5099579;28;20248;-77
2022/03/16 03:56:02;;;;;;;14.67;13.37;;;;;;;3.92;58.69;93504.38;5100535;28;20192;-77
2022/03/16 03:58:27;;;;;;;14.37;12.97;;;;;;;3.93;58.27;93519.66;5100807;28;20228;-77
2022/03/16 04:00:53;;;;;;;16.77;13.60;;;;;;;3.65;58.34;93490.97;5099264;28;20190;-77
2022/03/16 04:03:18;;;;;;;14.63;13.33;;;;;;;3.75;58.13;93527.41;5100721;28;20188;-77
2022/03/16 04:05:44;;;;;;;15.43;13.87;;;;;;;3.79;57.18;93518.22;5101206;28;20666;-74
2022/03/16 04:08:10;;;;;;;15.17;13.13;;;;;;;4.01;57.15;93526.34;5080600;28;20263;-74
2022/03/16 04:10:39;;;;;;;15.70;14.20;;;;;;;3.76;58.57;93529.00;5101376;28;20230;-73
2022/03/16 04:13:05;;;;;;;17.60;15.40;;;;;;;3.75;56.98;93513.72;5082482;28;20175;-74
2022/03/16 04:15:30;;;;;;;15.83;14.23;;;;;;;3.86;57.05;93487.94;5083852;28;20184;-73
2022/03/16 04:17:56;;;;;;;17.00;15.20;;;;;;;3.94;58.12;93518.66;5102028;28;20238;-74
2022/03/16 04:20:21;;;;;;;21.13;16.07;;;;;;;3.93;58.34;93498.22;5102203;28;20212;-73
2022/03/16 04:22:46;;;;;;;17.77;15.97;;;;;;;3.63;59.03;93515.44;5100793;28;20196;-74
2022/03/16 04:25:12;;;;;;;19.67;16.50;;;;;;;3.96;58.45;93503.75;5101139;28;20216;-73
2022/03/16 04:27:38;;;;;;;20.70;15.73;;;;;;;3.43;59.56;93479.47;5100453;28;20200;-73
2022/03/16 04:30:04;;;;;;;24.90;16.30;;;;;;;3.85;59.17;93490.75;5098677;28;20219;-73
2022/03/16 04:32:30;;;;;;;42.37;23.47;;;;;;;4.02;59.28;93491.72;5101490;28;20185;-73
2022/03/16 04:34:55;;;;;;;20.27;16.30;;;;;;;4.01;58.85;93490.16;5102248;28;20283;-73
2022/03/16 04:37:21;;;;;;;20.43;15.93;;;;;;;4.11;58.53;93498.22;5099489;28;20188;-73
2022/03/16 04:39:46;;;;;;;17.23;15.53;;;;;;;4.03;59.30;93494.09;5099578;28;20219;-74
2022/03/16 04:42:12;;;;;;;18.13;16.03;;;;;;;4.06;59.30;93467.06;5100582;28;20180;-76
2022/03/16 04:44:37;;;;;;;22.60;17.90;;;;;;;4.00;58.34;93473.88;5095039;28;20235;-83
2022/03/16 04:47:03;;;;;;;21.53;17.97;;;;;;;4.11;58.25;93478.31;5095990;28;20193;-79
2022/03/16 04:49:28;;;;;;;22.90;19.83;;;;;;;3.76;59.19;93445.56;5093965;28;20223;-82
2022/03/16 04:51:54;;;;;;;28.53;20.07;;;;;;;3.58;61.75;93464.41;5097717;28;20293;-81
2022/03/16 04:54:19;;;;;;;24.90;18.43;;;;;;;3.57;60.49;93462.06;5097283;28;20224;-80
2022/03/16 04:56:45;;;;;;;22.50;18.17;;;;;;;3.73;60.22;93466.66;5098025;28;20189;-82
2022/03/16 04:59:10;;;;;;;23.30;18.80;;;;;;;3.95;58.48;93473.75;5097531;28;20238;-82
2022/03/16 05:01:36;;;;;;;31.80;20.60;;;;;;;3.84;59.99;93459.00;5099506;28;20193;-87
2022/03/16 05:04:01;;;;;;;31.87;22.00;;;;;;;4.21;59.08;93470.84;5097390;28;20223;-88
2022/03/16 05:06:27;;;;;;;33.57;20.80;;;;;;;3.90;58.69;93440.03;5092822;28;20188;-87
2022/03/16 05:08:52;;;;;;;23.90;19.43;;;;;;;4.10;57.99;93466.41;5095179;28;20217;-82
2022/03/16 05:11:21;;;;;;;22.73;17.23;;;;;;;3.91;58.38;93457.09;5098585;28;20181;-88
2022/03/16 05:13:47;;;;;;;22.33;19.20;;;;;;;3.84;57.27;93443.50;5095417;28;20256;-87
2022/03/16 05:16:12;;;;;;;23.87;19.33;;;;;;;4.03;57.00;93457.94;5100458;28;20210;-82
2022/03/16 05:18:44;;;;;;;27.17;19.17;;;;;;;3.88;57.87;93443.81;5093850;28;20239;-81
2022/03/16 05:21:09;;;;;;;20.27;16.73;;;;;;;4.20;56.07;93458.91;5093185;28;20245;-84
2022/03/16 05:23:38;;;;;;;20.67;18.47;;;;;;;4.36;57.59;93453.13;5099022;28;20231;-87
2022/03/16 05:26:04;;;;;;;35.10;20.73;;;;;;;4.43;57.02;93445.28;5098815;28;20216;-76
2022/03/16 05:28:30;;;;;;;55.07;28.80;;;;;;;4.53;57.55;93453.28;5076362;28;20235;-76
2022/03/16 05:30:56;;;;;;;52.80;28.00;;;;;;;4.49;57.64;93452.97;5095882;28;20180;-76
2022/03/16 05:33:23;;;;;;;74.07;33.97;;;;;;;4.49;57.96;93429.69;5096388;28;20256;-77
2022/03/16 05:35:49;;;;;;;77.63;34.70;;;;;;;4.57;58.96;93442.31;5092748;28;20821;-75
2022/03/16 05:38:15;;;;;;;77.57;37.73;;;;;;;4.02;60.28;93430.53;5079398;28;20188;-74
2022/03/16 05:40:42;;;;;;;85.43;37.63;;;;;;;4.19;59.18;93410.81;5081136;28;20184;-74
2022/03/16 05:43:09;;;;;;;77.63;37.33;;;;;;;4.32;57.86;93409.84;5095427;28;20192;-75
2022/03/16 05:45:35;;;;;;;66.77;34.27;;;;;;;4.49;57.89;93424.53;5093914;28;20176;-75
2022/03/16 05:48:00;;;;;;;65.03;33.23;;;;;;;4.41;58.41;93417.06;5092102;28;20223;-80
2022/03/16 05:50:28;;;;;;;59.93;30.57;;;;;;;4.55;57.83;93410.69;5074060;28;20286;-79
2022/03/16 05:53:03;;;;;;;54.63;28.23;;;;;;;4.44;58.78;93392.56;5092447;28;20197;-84
2022/03/16 05:55:28;;;;;;;32.83;21.57;;;;;;;4.26;59.31;93401.19;5095288;28;20211;-78
2022/03/16 05:57:54;;;;;;;21.60;17.77;;;;;;;4.31;59.52;93387.63;5074058;28;20273;-73
2022/03/16 06:00:21;;;;;;;20.30;17.93;;;;;;;4.46;59.12;93406.88;5078087;28;20289;-77
2022/03/16 06:02:48;;;;;;;28.00;19.20;;;;;;;4.71;58.37;93410.06;5092650;28;20256;-84
2022/03/16 06:05:14;;;;;;;34.27;20.60;;;;;;;4.82;55.65;93403.31;5089415;28;20232;-78
2022/03/16 06:07:41;;;;;;;31.93;20.10;;;;;;;4.71;54.91;93404.88;5089660;28;20276;-79
2022/03/16 06:10:12;;;;;;;20.93;17.87;;;;;;;4.40;54.85;93400.00;5091201;28;20364;-81
2022/03/16 06:12:51;;;;;;;27.40;18.17;;;;;;;4.39;56.89;93415.72;5078913;28;20185;-78
2022/03/16 06:15:17;;;;;;;29.20;18.57;;;;;;;4.36;54.96;93401.44;5096305;28;20262;-79
2022/03/16 06:17:42;;;;;;;29.57;18.50;;;;;;;4.36;56.43;93416.94;5096797;28;20197;-82
2022/03/16 06:20:08;;;;;;;25.97;20.67;;;;;;;4.36;54.33;93403.22;5095009;28;21906;-76
2022/03/16 06:22:34;;;;;;;27.83;20.63;;;;;;;4.75;53.30;93395.66;5093990;28;20217;-78
2022/03/16 06:24:59;;;;;;;30.60;20.93;;;;;;;4.83;53.67;93413.44;5092877;28;20224;-76
2022/03/16 06:27:25;;;;;;;24.50;20.70;;;;;;;4.92;54.38;93409.50;5078446;28;20200;-78
2022/03/16 06:29:50;;;;;;;30.30;20.07;;;;;;;4.68;55.47;93397.56;5094914;28;20216;-77
2022/03/16 06:32:16;;;;;;;32.00;20.37;;;;;;;4.97;53.99;93404.44;5095417;28;20206;-78
2022/03/16 06:34:41;;;;;;;35.80;21.60;;;;;;;4.91;54.14;93389.84;5094481;28;20227;-79
2022/03/16 06:37:06;;;;;;;39.90;20.63;;;;;;;4.66;55.17;93397.00;5098708;28;20200;-77
2022/03/16 06:39:32;;;;;;;38.33;21.47;;;;;;;4.77;56.51;93413.53;5093767;28;20224;-77
2022/03/16 06:41:57;;;;;;;31.50;20.83;;;;;;;5.08;55.31;93415.00;5097068;28;20215;-76
2022/03/16 06:44:23;;;;;;;35.27;20.67;;;;;;;5.15;55.78;93418.28;5098364;28;20230;-78
2022/03/16 06:46:48;;;;;;;27.60;20.60;;;;;;;4.61;53.56;93412.41;5096356;28;20187;-78
2022/03/16 06:49:14;;;;;;;28.53;19.77;;;;;;;4.51;53.31;93388.09;5097557;28;20227;-78
2022/03/16 06:51:40;;;;;;;31.33;20.17;;;;;;;4.88;53.99;93412.75;5096997;28;20168;-78
2022/03/16 06:54:05;;;;;;;26.60;19.50;;;;;;;5.28;54.21;93423.22;5093722;28;20255;-80
2022/03/16 06:56:31;;;;;;;33.13;19.60;;;;;;;5.35;52.54;93403.19;5094717;28;20207;-79
2022/03/16 06:58:56;;;;;;;27.50;19.33;;;;;;;5.53;52.99;93413.41;5096756;28;20307;-80
2022/03/16 07:01:22;;;;;;;28.50;20.73;;;;;;;5.36;52.19;93391.81;5095174;28;20188;-82
2022/03/16 07:03:47;;;;;;;22.80;17.83;;;;;;;5.45;50.48;93411.94;5095591;28;20220;-84
2022/03/16 07:06:13;;;;;;;27.60;20.47;;;;;;;5.56;49.12;93407.75;5093525;28;21235;-79
2022/03/16 07:08:38;;;;;;;45.33;25.27;;;;;;;5.65;51.20;93409.00;5092045;28;20235;-80
2022/03/16 07:11:04;;;;;;;45.13;25.07;;;;;;;5.72;51.62;93420.81;5096858;28;20235;-81
2022/03/16 07:13:29;;;;;;;42.13;24.00;;;;;;;5.40;52.86;93387.78;5077384;28;20250;-80
2022/03/16 07:15:55;;;;;;;49.43;25.63;;;;;;;5.23;53.72;93395.44;5093628;28;20197;-82
2022/03/16 07:18:23;;;;;;;47.43;28.10;;;;;;;5.24;54.75;93393.63;5075862;28;20177;-81
2022/03/16 07:20:49;;;;;;;54.60;27.90;;;;;;;5.33;54.77;93393.06;5094913;28;20181;-82
2022/03/16 07:23:17;;;;;;;52.93;28.17;;;;;;;5.39;55.11;93404.31;5098096;28;20202;-81
2022/03/16 07:25:48;;;;;;;44.63;28.27;;;;;;;5.61;55.11;93418.22;5097445;28;20244;-82
2022/03/16 07:28:14;;;;;;;49.10;28.43;;;;;;;5.78;54.40;93413.91;5096835;28;20189;-81
2022/03/16 07:30:40;;;;;;;62.00;31.50;;;;;;;5.65;53.88;93396.06;5101370;28;20176;-76
2022/03/16 07:33:06;;;;;;;63.20;31.80;;;;;;;5.66;53.79;93402.81;5104547;28;20183;-77
2022/03/16 07:35:34;;;;;;;66.70;31.23;;;;;;;5.46;54.37;93398.00;5101606;28;20180;-76
2022/03/16 07:38:02;;;;;;;55.27;32.63;;;;;;;5.47;54.72;93389.22;5099524;28;20184;-76
2022/03/16 07:40:30;;;;;;;61.47;31.00;;;;;;;5.71;54.90;93402.91;5083556;28;20208;-77
2022/03/16 07:42:56;;;;;;;54.13;30.80;;;;;;;5.71;55.18;93405.50;5102179;28;20192;-76
2022/03/16 07:45:21;;;;;;;72.53;31.17;;;;;;;6.03;55.09;93394.50;5101731;28;20251;-77
2022/03/16 07:47:49;;;;;;;58.90;31.87;;;;;;;6.09;55.03;93385.00;5100209;28;20904;-76
2022/03/16 07:50:16;;;;;;;62.50;30.00;;;;;;;6.25;53.54;93392.84;5097322;28;20648;-76
2022/03/16 07:52:42;;;;;;;53.27;31.10;;;;;;;6.28;53.22;93396.75;5093639;28;20188;-76
2022/03/16 07:55:08;;;;;;;55.27;31.20;;;;;;;6.47;52.45;93377.38;5099812;28;20219;-76
2022/03/16 07:57:37;;;;;;;63.73;30.50;;;;;;;6.23;53.51;93397.44;5097309;28;20209;-76
2022/03/16 08:00:08;;;;;;;59.97;29.47;;;;;;;6.47;52.58;93396.31;5096367;28;20231;-76
2022/03/16 08:02:33;;;;;;;51.50;28.97;;;;;;;6.52;52.21;93395.63;5102717;28;20209;-76
2022/03/16 08:05:00;;;;;;;56.87;28.97;;;;;;;6.65;50.74;93389.31;5098210;28;20231;-76
2022/03/16 08:07:29;;;;;;;60.53;31.63;;;;;;;6.81;50.56;93381.56;5098220;28;20220;-76
2022/03/16 08:09:56;;;;;;;51.40;30.47;;;;;;;6.44;50.98;93363.06;5098920;28;20220;-76
2022/03/16 08:12:22;;;;;;;48.60;30.10;;;;;;;6.57;49.82;93394.91;5100842;28;20211;-76
2022/03/16 08:14:48;;;;;;;39.03;24.90;;;;;;;6.63;47.71;93399.94;5097306;28;20232;-76
2022/03/16 08:17:13;;;;;;;39.27;26.93;;;;;;;6.83;47.90;93395.09;5098723;28;20193;-76
2022/03/16 08:19:39;;;;;;;62.27;27.83;;;;;;;6.82;49.78;93393.50;5082354;28;20224;-76
2022/03/16 08:22:04;;;;;;;44.73;27.90;;;;;;;6.80;50.25;93399.97;5096607;28;20205;-77
2022/03/16 08:24:30;;;;;;;57.13;28.23;;;;;;;6.21;51.71;93385.75;5081869;28;20228;-76
2022/03/16 08:26:55;;;;;;;45.40;28.37;;;;;;;6.59;51.51;93383.28;5099238;28;20188;-76
2022/03/16 08:29:20;;;;;;;35.80;25.77;;;;;;;6.93;50.97;93377.06;5083359;28;20279;-76
2022/03/16 08:31:46;;;;;;;35.27;24.13;;;;;;;7.33;46.80;93375.03;5083339;28;20260;-77
2022/03/16 08:34:11;;;;;;;28.97;20.33;;;;;;;7.34;44.84;93381.81;5101552;28;20236;-76
2022/03/16 08:36:39;;;;;;;26.57;20.00;;;;;;;7.38;42.69;93362.13;5100081;28;20187;-77
2022/03/16 08:39:05;;;;;;;31.00;19.70;;;;;;;7.26;43.92;93347.66;5097456;28;20224;-76
2022/03/16 08:41:33;;;;;;;28.37;19.43;;;;;;;7.50;44.15;93354.22;5099879;28;20193;-77
2022/03/16 08:44:02;;;;;;;32.07;21.53;;;;;;;7.79;43.78;93358.19;5100099;28;20235;-76
2022/03/16 08:46:28;;;;;;;28.87;21.13;;;;;;;8.06;44.11;93336.41;5099831;28;20236;-76
2022/03/16 08:48:54;;;;;;;37.20;20.77;;;;;;;8.32;42.13;93337.47;5099371;28;20228;-76
2022/03/16 08:51:19;;;;;;;26.13;20.23;;;;;;;8.35;41.43;93354.38;5100652;28;20185;-77
2022/03/16 08:53:45;;;;;;;24.97;20.77;;;;;;;7.87;42.49;93350.78;5081657;28;20228;-76
2022/03/16 08:56:11;;;;;;;33.50;21.07;;;;;;;7.62;42.99;93347.88;5100941;28;20204;-76
2022/03/16 08:58:37;;;;;;;36.23;21.37;;;;;;;8.10;41.91;93376.50;5097492;28;20236;-76
2022/03/16 09:01:03;;;;;;;37.17;23.40;;;;;;;7.73;44.28;93374.78;5082114;28;20187;-77
2022/03/16 09:03:28;;;;;;;38.00;23.73;;;;;;;8.17;44.20;93377.06;5097826;28;20228;-78
2022/03/16 09:05:54;;;;;;;36.90;22.77;;;;;;;8.60;42.97;93375.44;5099593;28;20237;-77
2022/03/16 09:08:19;;;;;;;33.00;23.87;;;;;;;8.75;42.34;93376.34;5097897;28;20224;-78
2022/03/16 09:10:47;;;;;;;30.83;22.53;;;;;;;8.46;41.02;93346.44;5082937;28;20198;-77
2022/03/16 09:13:15;;;;;;;37.13;23.37;;;;;;;8.57;41.78;93355.91;5100027;28;20181;-77
2022/03/16 09:15:41;;;;;;;32.53;22.23;;;;;;;8.44;42.87;93352.91;5102083;28;20200;-77
2022/03/16 09:18:09;;;;;;;39.53;22.67;;;;;;;8.36;43.09;93343.72;5101249;28;20181;-77
2022/03/16 09:20:35;;;;;;;35.33;23.23;;;;;;;8.30;44.98;93349.91;5099872;28;20211;-78
2022/03/16 09:23:01;;;;;;;25.97;20.30;;;;;;;8.01;42.47;93328.56;5099228;28;20192;-81
2022/03/16 09:25:27;;;;;;;40.90;21.93;;;;;;;8.43;41.58;93361.75;5077335;28;20245;-77
2022/03/16 09:27:53;;;;;;;28.63;22.57;;;;;;;8.36;41.01;93343.72;5096632;28;20188;-78
2022/03/16 09:30:19;;;;;;;26.43;20.93;;;;;;;8.23;41.96;93374.56;5078632;28;20272;-78
2022/03/16 09:32:45;;;;;;;29.60;19.83;;;;;;;8.39;41.65;93364.03;5099024;28;20184;-79
2022/03/16 09:35:11;;;;;;;24.77;19.43;;;;;;;8.46;39.55;93356.84;5097936;28;20238;-78
2022/03/16 09:37:36;;;;;;;29.60;19.10;;;;;;;8.33;40.85;93385.84;5080738;28;20191;-78
2022/03/16 09:40:03;;;;;;;33.03;21.10;;;;;;;8.37;41.01;93370.53;5080167;28;20251;-78
2022/03/16 09:42:29;;;;;;;41.07;23.57;;;;;;;8.72;41.62;93381.25;5097913;28;20191;-78
2022/03/16 09:45:01;;;;;;;36.80;22.67;;;;;;;8.69;42.21;93373.94;5096642;28;20235;-78
2022/03/16 09:47:27;;;;;;;32.63;22.23;;;;;;;8.88;40.98;93367.34;5081062;28;20180;-80
2022/03/16 09:49:54;;;;;;;36.07;22.57;;;;;;;9.20;39.93;93348.03;5078901;28;20228;-79
2022/03/16 09:52:19;;;;;;;34.63;22.83;;;;;;;9.35;39.76;93378.59;5078903;28;20192;-79
2022/03/16 09:54:46;;;;;;;30.40;21.67;;;;;;;8.85;40.10;93329.56;5095982;28;20232;-79
2022/03/16 09:57:12;;;;;;;40.20;22.77;;;;;;;8.88;41.25;93356.91;5097401;28;20194;-79
2022/03/16 09:59:38;;;;;;;39.53;20.87;;;;;;;8.07;41.20;93339.78;5064634;28;20232;-77
2022/03/16 10:02:09;;;;;;;30.90;22.20;;;;;;;8.57;41.57;93355.09;5099709;28;20283;-79
2022/03/16 10:04:36;;;;;;;40.47;22.23;;;;;;;8.86;40.63;93369.38;5098235;28;20235;-79
2022/03/16 10:07:05;;;;;;;33.13;22.50;;;;;;;8.67;40.62;93355.22;5078975;28;20195;-78
2022/03/16 10:15:11;;;;;;;36.20;21.60;;;;;;;8.89;40.65;93364.47;5096542;28;21153;-78
2022/03/16 10:17:45;;;;;;;30.37;21.90;;;;;;;8.65;40.81;93365.88;5080368;28;20737;-77
2022/03/16 10:20:21;;;;;;;33.10;23.10;;;;;;;8.52;41.79;93352.47;5099290;28;20236;-78
2022/03/16 10:23:03;;;;;;;33.57;21.73;;;;;;;8.53;42.04;93359.25;5096653;28;20195;-79
2022/03/16 10:25:43;;;;;;;31.50;22.07;;;;;;;8.26;41.48;93327.25;5096613;28;20202;-79
2022/03/16 10:28:16;;;;;;;30.47;21.03;;;;;;;8.32;41.46;93332.25;5096184;28;20192;-77
2022/03/16 10:30:52;;;;;;;40.13;23.27;;;;;;;8.13;42.27;93329.19;5095029;28;20169;-78
2022/03/16 10:33:19;;;;;;;40.63;22.27;;;;;;;8.17;42.81;93345.88;5096135;28;20223;-80
2022/03/16 10:35:56;;;;;;;36.13;23.90;;;;;;;7.93;42.81;93317.81;5096742;28;20226;-79
2022/03/16 10:38:22;;;;;;;33.33;24.30;;;;;;;8.07;42.70;93311.19;5096449;28;20194;-80
2022/03/16 10:40:48;;;;;;;34.57;23.27;;;;;;;8.10;44.42;93350.50;5078176;28;20192;-81
2022/03/16 10:49:04;;;;;;;39.50;22.57;;;;;;;8.18;42.27;93352.66;5097540;28;20280;-80
2022/03/16 10:51:30;;;;;;;40.50;23.27;;;;;;;8.53;41.98;93360.00;5095729;28;20183;-80
2022/03/16 10:53:58;;;;;;;40.13;23.17;;;;;;;8.84;40.45;93345.44;5096305;28;20239;-78
2022/03/16 10:56:24;;;;;;;36.07;21.67;;;;;;;8.53;42.27;93335.84;5077130;28;20188;-81
2022/03/16 10:58:54;;;;;;;33.70;22.63;;;;;;;9.00;41.31;93341.88;5095186;28;20319;-79
2022/03/16 11:01:20;;;;;;;32.67;22.23;;;;;;;8.84;41.85;93281.13;5095600;28;20188;-78
2022/03/16 11:03:50;;;;;;;37.70;23.27;;;;;;;9.74;39.61;93341.50;5100321;28;20228;-82
2022/03/16 11:06:20;;;;;;;33.40;23.77;;;;;;;9.77;39.77;93327.19;5098207;28;20177;-79
2022/03/16 11:08:47;;;;;;;34.67;24.90;;;;;;;9.59;40.88;93332.84;5099224;28;20427;-80
2022/03/16 11:14:01;;;;;;;31.37;22.93;;;;;;;9.68;40.24;93324.28;5102279;28;20292;-79
2022/03/16 11:16:27;;;;;;;36.53;24.27;;;;;;;9.53;39.34;93328.66;5096797;28;20192;-78
2022/03/16 11:18:52;;;;;;;39.60;24.73;;;;;;;9.40;40.09;93319.47;5100148;28;20273;-78
2022/03/16 11:21:26;;;;;;;36.73;24.70;;;;;;;9.53;40.45;93308.59;5098837;28;20188;-78
2022/03/16 11:27:10;;;;;;;41.03;23.83;;;;;;;9.63;40.52;93302.63;5095916;28;20196;-78
2022/03/16 11:30:00;;;;;;;35.80;23.07;;;;;;;9.99;39.82;93288.66;5097544;28;20261;-78
2022/03/16 11:32:35;;;;;;;42.47;24.20;;;;;;;10.09;39.19;93280.88;5100680;28;20193;-78
2022/03/16 11:35:02;;;;;;;42.47;23.23;;;;;;;10.21;38.17;93272.81;5100809;28;20235;-78
2022/03/16 11:37:36;;;;;;;31.67;24.27;;;;;;;9.92;38.56;93287.31;5098639;28;20207;-79